sensor_id;sensor_type;location;lat;lon;timestamp;P1;durP1;ratioP1;P2;durP2;ratioP2
40871;SDS011;26591;43.264;26.940;2022-08-11T00:01:24;2.47;;;1.20;;
40871;SDS011;26591;43.264;26.940;2022-08-11T00:04:02;2.75;;;1.35;;
40871;SDS011;26591;43.264;26.940;2022-08-11T00:06:30;5.50;;;1.85;;
40871;SDS011;26591;43.264;26.940;2022-08-11T00:08:58;3.83;;;1.70;;
40871;SDS011;26591;43.264;26.940;2022-08-11T00:14:12;8.80;;;1.65;;
40871;SDS011;26591;43.264;26.940;2022-08-11T00:16:43;4.03;;;1.23;;
40871;SDS011;26591;43.264;26.940;2022-08-11T00:19:27;6.40;;;1.42;;
40871;SDS011;26591;43.264;26.940;2022-08-11T00:21:55;2.85;;;1.17;;
40871;SDS011;26591;43.264;26.940;2022-08-11T00:24:22;2.53;;;1.05;;
40871;SDS011;26591;43.264;26.940;2022-08-11T00:26:52;2.10;;;1.23;;
40871;SDS011;26591;43.264;26.940;2022-08-11T00:31:49;3.45;;;1.50;;
40871;SDS011;26591;43.264;26.940;2022-08-11T00:34:19;2.20;;;1.40;;
40871;SDS011;26591;43.264;26.940;2022-08-11T00:36:52;2.92;;;1.48;;
40871;SDS011;26591;43.264;26.940;2022-08-11T00:39:28;2.75;;;1.35;;
40871;SDS011;26591;43.264;26.940;2022-08-11T00:42:14;2.17;;;1.42;;
40871;SDS011;26591;43.264;26.940;2022-08-11T00:47:50;3.72;;;1.50;;
40871;SDS011;26591;43.264;26.940;2022-08-11T00:54:23;4.00;;;1.77;;
40871;SDS011;26591;43.264;26.940;2022-08-11T00:59:31;3.38;;;1.60;;
40871;SDS011;26591;43.264;26.940;2022-08-11T01:02:40;4.88;;;1.60;;
40871;SDS011;26591;43.264;26.940;2022-08-11T01:06:20;4.60;;;1.55;;
40871;SDS011;26591;43.264;26.940;2022-08-11T01:11:39;2.70;;;1.17;;
40871;SDS011;26591;43.264;26.940;2022-08-11T01:48:41;4.25;;;1.70;;
40871;SDS011;26591;43.264;26.940;2022-08-11T01:51:33;4.90;;;2.15;;
40871;SDS011;26591;43.264;26.940;2022-08-11T01:54:25;4.07;;;2.13;;
40871;SDS011;26591;43.264;26.940;2022-08-11T02:02:31;2.30;;;1.80;;
40871;SDS011;26591;43.264;26.940;2022-08-11T02:16:04;5.88;;;1.83;;
40871;SDS011;26591;43.264;26.940;2022-08-11T02:18:44;3.28;;;1.80;;
40871;SDS011;26591;43.264;26.940;2022-08-11T02:21:45;4.05;;;2.10;;
40871;SDS011;26591;43.264;26.940;2022-08-11T02:24:40;4.35;;;2.25;;
40871;SDS011;26591;43.264;26.940;2022-08-11T02:27:15;3.88;;;2.20;;
40871;SDS011;26591;43.264;26.940;2022-08-11T02:30:06;3.22;;;2.25;;
40871;SDS011;26591;43.264;26.940;2022-08-11T02:35:41;4.28;;;2.35;;
40871;SDS011;26591;43.264;26.940;2022-08-11T02:41:07;4.32;;;2.33;;
40871;SDS011;26591;43.264;26.940;2022-08-11T02:54:58;5.55;;;2.50;;
40871;SDS011;26591;43.264;26.940;2022-08-11T02:57:41;5.97;;;3.17;;
40871;SDS011;26591;43.264;26.940;2022-08-11T03:00:12;3.83;;;2.45;;
40871;SDS011;26591;43.264;26.940;2022-08-11T03:02:52;4.47;;;2.67;;
40871;SDS011;26591;43.264;26.940;2022-08-11T03:05:26;3.47;;;2.70;;
40871;SDS011;26591;43.264;26.940;2022-08-11T03:08:13;5.10;;;2.92;;
40871;SDS011;26591;43.264;26.940;2022-08-11T03:13:48;4.70;;;3.00;;
40871;SDS011;26591;43.264;26.940;2022-08-11T03:16:45;5.45;;;2.50;;
40871;SDS011;26591;43.264;26.940;2022-08-11T03:33:20;7.72;;;3.15;;
40871;SDS011;26591;43.264;26.940;2022-08-11T03:47:07;6.32;;;3.08;;
40871;SDS011;26591;43.264;26.940;2022-08-11T04:18:49;9.50;;;2.70;;
40871;SDS011;26591;43.264;26.940;2022-08-11T04:33:01;4.78;;;2.47;;
40871;SDS011;26591;43.264;26.940;2022-08-11T04:41:19;8.13;;;2.50;;
40871;SDS011;26591;43.264;26.940;2022-08-11T04:54:12;9.55;;;2.60;;
40871;SDS011;26591;43.264;26.940;2022-08-11T04:56:38;6.13;;;2.40;;
40871;SDS011;26591;43.264;26.940;2022-08-11T04:59:31;6.57;;;2.10;;
40871;SDS011;26591;43.264;26.940;2022-08-11T05:05:27;5.93;;;2.15;;
40871;SDS011;26591;43.264;26.940;2022-08-11T05:16:56;2.88;;;1.52;;
40871;SDS011;26591;43.264;26.940;2022-08-11T05:19:45;4.45;;;1.90;;
40871;SDS011;26591;43.264;26.940;2022-08-11T05:22:30;5.38;;;2.05;;
40871;SDS011;26591;43.264;26.940;2022-08-11T05:25:21;5.57;;;1.90;;
40871;SDS011;26591;43.264;26.940;2022-08-11T05:28:13;6.05;;;2.00;;
40871;SDS011;26591;43.264;26.940;2022-08-11T05:31:04;5.78;;;1.77;;
40871;SDS011;26591;43.264;26.940;2022-08-11T05:34:00;5.85;;;1.75;;
40871;SDS011;26591;43.264;26.940;2022-08-11T05:36:51;5.65;;;1.98;;
40871;SDS011;26591;43.264;26.940;2022-08-11T05:39:24;3.40;;;1.80;;
40871;SDS011;26591;43.264;26.940;2022-08-11T05:42:10;20.45;;;3.33;;
40871;SDS011;26591;43.264;26.940;2022-08-11T05:44:58;3.95;;;1.60;;
40871;SDS011;26591;43.264;26.940;2022-08-11T05:47:52;7.00;;;1.90;;
40871;SDS011;26591;43.264;26.940;2022-08-11T05:50:37;4.35;;;1.60;;
40871;SDS011;26591;43.264;26.940;2022-08-11T05:53:22;4.50;;;1.92;;
40871;SDS011;26591;43.264;26.940;2022-08-11T05:56:08;5.57;;;1.75;;
40871;SDS011;26591;43.264;26.940;2022-08-11T05:58:50;4.13;;;1.75;;
40871;SDS011;26591;43.264;26.940;2022-08-11T06:01:21;2.33;;;1.50;;
40871;SDS011;26591;43.264;26.940;2022-08-11T06:03:50;2.90;;;1.85;;
40871;SDS011;26591;43.264;26.940;2022-08-11T06:06:37;6.60;;;1.75;;
40871;SDS011;26591;43.264;26.940;2022-08-11T06:09:06;6.97;;;1.60;;
40871;SDS011;26591;43.264;26.940;2022-08-11T06:11:36;2.40;;;1.77;;
40871;SDS011;26591;43.264;26.940;2022-08-11T06:14:07;4.15;;;1.80;;
40871;SDS011;26591;43.264;26.940;2022-08-11T06:16:34;7.93;;;1.70;;
40871;SDS011;26591;43.264;26.940;2022-08-11T06:19:02;6.07;;;1.58;;
40871;SDS011;26591;43.264;26.940;2022-08-11T06:21:31;9.73;;;2.00;;
40871;SDS011;26591;43.264;26.940;2022-08-11T06:23:58;5.93;;;2.05;;
40871;SDS011;26591;43.264;26.940;2022-08-11T06:26:25;8.77;;;1.60;;
40871;SDS011;26591;43.264;26.940;2022-08-11T06:28:51;3.03;;;1.63;;
40871;SDS011;26591;43.264;26.940;2022-08-11T06:31:23;4.13;;;1.90;;
40871;SDS011;26591;43.264;26.940;2022-08-11T06:41:32;3.42;;;1.85;;
40871;SDS011;26591;43.264;26.940;2022-08-11T06:46:47;10.48;;;1.90;;
40871;SDS011;26591;43.264;26.940;2022-08-11T06:49:15;2.40;;;1.45;;
40871;SDS011;26591;43.264;26.940;2022-08-11T06:52:03;4.32;;;2.00;;
40871;SDS011;26591;43.264;26.940;2022-08-11T06:54:36;10.35;;;1.65;;
40871;SDS011;26591;43.264;26.940;2022-08-11T06:57:08;7.97;;;1.63;;
40871;SDS011;26591;43.264;26.940;2022-08-11T07:02:51;6.38;;;1.80;;
40871;SDS011;26591;43.264;26.940;2022-08-11T07:14:01;4.75;;;1.60;;
40871;SDS011;26591;43.264;26.940;2022-08-11T07:16:47;5.93;;;1.65;;
40871;SDS011;26591;43.264;26.940;2022-08-11T07:19:20;5.63;;;1.70;;
40871;SDS011;26591;43.264;26.940;2022-08-11T07:22:09;4.40;;;1.60;;
40871;SDS011;26591;43.264;26.940;2022-08-11T07:24:56;12.10;;;1.70;;
40871;SDS011;26591;43.264;26.940;2022-08-11T07:27:48;7.65;;;1.80;;
40871;SDS011;26591;43.264;26.940;2022-08-11T07:30:39;4.72;;;1.80;;
40871;SDS011;26591;43.264;26.940;2022-08-11T07:33:06;5.28;;;1.50;;
40871;SDS011;26591;43.264;26.940;2022-08-11T07:35:51;3.63;;;1.77;;
40871;SDS011;26591;43.264;26.940;2022-08-11T07:38:30;2.95;;;1.70;;
40871;SDS011;26591;43.264;26.940;2022-08-11T07:41:12;4.82;;;1.80;;
40871;SDS011;26591;43.264;26.940;2022-08-11T07:43:43;4.32;;;1.55;;
40871;SDS011;26591;43.264;26.940;2022-08-11T07:46:14;6.38;;;1.50;;
40871;SDS011;26591;43.264;26.940;2022-08-11T07:48:59;3.25;;;1.52;;
40871;SDS011;26591;43.264;26.940;2022-08-11T07:51:45;3.78;;;1.40;;
40871;SDS011;26591;43.264;26.940;2022-08-11T07:54:31;10.20;;;1.60;;
40871;SDS011;26591;43.264;26.940;2022-08-11T07:56:56;4.03;;;1.67;;
40871;SDS011;26591;43.264;26.940;2022-08-11T07:59:23;3.05;;;1.50;;
40871;SDS011;26591;43.264;26.940;2022-08-11T08:02:09;8.02;;;1.50;;
40871;SDS011;26591;43.264;26.940;2022-08-11T08:04:55;3.35;;;1.55;;
40871;SDS011;26591;43.264;26.940;2022-08-11T08:07:41;6.20;;;1.70;;
40871;SDS011;26591;43.264;26.940;2022-08-11T08:10:26;8.10;;;2.03;;
40871;SDS011;26591;43.264;26.940;2022-08-11T08:13:11;1.70;;;1.10;;
40871;SDS011;26591;43.264;26.940;2022-08-11T08:15:57;7.15;;;1.60;;
40871;SDS011;26591;43.264;26.940;2022-08-11T08:18:41;3.33;;;1.30;;
40871;SDS011;26591;43.264;26.940;2022-08-11T08:21:07;6.68;;;1.60;;
40871;SDS011;26591;43.264;26.940;2022-08-11T08:23:40;3.10;;;1.52;;
40871;SDS011;26591;43.264;26.940;2022-08-11T08:26:09;3.45;;;1.60;;
40871;SDS011;26591;43.264;26.940;2022-08-11T08:28:56;2.25;;;1.15;;
40871;SDS011;26591;43.264;26.940;2022-08-11T08:31:45;1.45;;;1.15;;
40871;SDS011;26591;43.264;26.940;2022-08-11T08:34:15;8.27;;;1.33;;
40871;SDS011;26591;43.264;26.940;2022-08-11T08:36:41;15.85;;;1.65;;
40871;SDS011;26591;43.264;26.940;2022-08-11T08:39:10;6.13;;;1.60;;
40871;SDS011;26591;43.264;26.940;2022-08-11T08:41:37;10.25;;;2.40;;
40871;SDS011;26591;43.264;26.940;2022-08-11T08:44:07;4.20;;;1.50;;
40871;SDS011;26591;43.264;26.940;2022-08-11T08:46:45;5.97;;;1.80;;
40871;SDS011;26591;43.264;26.940;2022-08-11T08:49:14;2.35;;;1.27;;
40871;SDS011;26591;43.264;26.940;2022-08-11T08:51:43;4.75;;;1.33;;
40871;SDS011;26591;43.264;26.940;2022-08-11T08:54:14;5.88;;;2.13;;
40871;SDS011;26591;43.264;26.940;2022-08-11T08:56:43;3.55;;;1.20;;
40871;SDS011;26591;43.264;26.940;2022-08-11T08:59:11;1.85;;;1.10;;
40871;SDS011;26591;43.264;26.940;2022-08-11T09:01:46;2.17;;;1.27;;
40871;SDS011;26591;43.264;26.940;2022-08-11T09:04:19;4.28;;;1.17;;
40871;SDS011;26591;43.264;26.940;2022-08-11T09:06:45;1.98;;;1.10;;
40871;SDS011;26591;43.264;26.940;2022-08-11T09:09:12;3.72;;;1.23;;
40871;SDS011;26591;43.264;26.940;2022-08-11T09:11:39;2.33;;;1.30;;
40871;SDS011;26591;43.264;26.940;2022-08-11T09:14:23;1.50;;;1.20;;
40871;SDS011;26591;43.264;26.940;2022-08-11T09:17:16;3.85;;;1.30;;
40871;SDS011;26591;43.264;26.940;2022-08-11T09:19:43;4.53;;;1.30;;
40871;SDS011;26591;43.264;26.940;2022-08-11T09:22:17;2.63;;;1.20;;
40871;SDS011;26591;43.264;26.940;2022-08-11T09:25:03;2.30;;;1.02;;
40871;SDS011;26591;43.264;26.940;2022-08-11T09:27:48;1.65;;;1.15;;
40871;SDS011;26591;43.264;26.940;2022-08-11T09:30:15;3.20;;;1.08;;
40871;SDS011;26591;43.264;26.940;2022-08-11T09:32:40;2.95;;;1.15;;
40871;SDS011;26591;43.264;26.940;2022-08-11T09:35:07;2.65;;;0.93;;
40871;SDS011;26591;43.264;26.940;2022-08-11T09:37:33;1.88;;;1.10;;
40871;SDS011;26591;43.264;26.940;2022-08-11T09:40:19;1.77;;;1.20;;
40871;SDS011;26591;43.264;26.940;2022-08-11T09:42:55;6.60;;;1.17;;
40871;SDS011;26591;43.264;26.940;2022-08-11T09:45:43;4.97;;;1.60;;
40871;SDS011;26591;43.264;26.940;2022-08-11T09:48:14;8.17;;;1.50;;
40871;SDS011;26591;43.264;26.940;2022-08-11T09:50:44;3.90;;;1.00;;
40871;SDS011;26591;43.264;26.940;2022-08-11T09:53:12;5.05;;;1.38;;
40871;SDS011;26591;43.264;26.940;2022-08-11T09:55:40;4.63;;;1.50;;
40871;SDS011;26591;43.264;26.940;2022-08-11T09:58:08;6.65;;;1.35;;
40871;SDS011;26591;43.264;26.940;2022-08-11T10:00:41;4.22;;;0.90;;
40871;SDS011;26591;43.264;26.940;2022-08-11T10:03:20;2.30;;;1.10;;
40871;SDS011;26591;43.264;26.940;2022-08-11T10:05:49;4.72;;;1.20;;
40871;SDS011;26591;43.264;26.940;2022-08-11T10:08:46;3.03;;;1.00;;
40871;SDS011;26591;43.264;26.940;2022-08-11T10:11:17;6.05;;;1.05;;
40871;SDS011;26591;43.264;26.940;2022-08-11T10:13:47;1.23;;;1.10;;
40871;SDS011;26591;43.264;26.940;2022-08-11T10:16:36;1.15;;;0.85;;
40871;SDS011;26591;43.264;26.940;2022-08-11T10:19:05;3.53;;;1.20;;
40871;SDS011;26591;43.264;26.940;2022-08-11T10:24:29;2.03;;;1.00;;
40871;SDS011;26591;43.264;26.940;2022-08-11T10:27:14;5.57;;;1.00;;
40871;SDS011;26591;43.264;26.940;2022-08-11T10:29:40;4.97;;;1.20;;
40871;SDS011;26591;43.264;26.940;2022-08-11T10:32:28;3.22;;;1.48;;
40871;SDS011;26591;43.264;26.940;2022-08-11T10:35:14;6.23;;;1.60;;
40871;SDS011;26591;43.264;26.940;2022-08-11T10:37:42;3.45;;;0.95;;
40871;SDS011;26591;43.264;26.940;2022-08-11T10:40:12;5.68;;;1.30;;
40871;SDS011;26591;43.264;26.940;2022-08-11T10:42:40;2.95;;;1.23;;
40871;SDS011;26591;43.264;26.940;2022-08-11T10:45:25;4.80;;;1.30;;
40871;SDS011;26591;43.264;26.940;2022-08-11T10:48:09;7.10;;;1.30;;
40871;SDS011;26591;43.264;26.940;2022-08-11T10:50:36;2.63;;;1.10;;
40871;SDS011;26591;43.264;26.940;2022-08-11T10:53:20;3.05;;;1.30;;
40871;SDS011;26591;43.264;26.940;2022-08-11T10:56:06;3.42;;;1.52;;
40871;SDS011;26591;43.264;26.940;2022-08-11T10:58:51;7.30;;;1.40;;
40871;SDS011;26591;43.264;26.940;2022-08-11T11:01:27;7.72;;;1.25;;
40871;SDS011;26591;43.264;26.940;2022-08-11T11:04:07;1.88;;;0.95;;
40871;SDS011;26591;43.264;26.940;2022-08-11T11:09:33;3.80;;;1.17;;
40871;SDS011;26591;43.264;26.940;2022-08-11T11:12:16;3.50;;;1.45;;
40871;SDS011;26591;43.264;26.940;2022-08-11T11:15:06;9.23;;;1.30;;
40871;SDS011;26591;43.264;26.940;2022-08-11T11:17:55;1.95;;;0.93;;
40871;SDS011;26591;43.264;26.940;2022-08-11T11:20:38;4.05;;;1.38;;
40871;SDS011;26591;43.264;26.940;2022-08-11T11:31:58;2.38;;;1.00;;
40871;SDS011;26591;43.264;26.940;2022-08-11T11:37:23;2.78;;;1.20;;
40871;SDS011;26591;43.264;26.940;2022-08-11T11:39:50;5.25;;;1.40;;
40871;SDS011;26591;43.264;26.940;2022-08-11T11:42:18;1.98;;;1.10;;
40871;SDS011;26591;43.264;26.940;2022-08-11T11:44:45;6.78;;;1.30;;
40871;SDS011;26591;43.264;26.940;2022-08-11T11:47:12;7.60;;;1.65;;
40871;SDS011;26591;43.264;26.940;2022-08-11T11:49:46;1.88;;;1.20;;
40871;SDS011;26591;43.264;26.940;2022-08-11T11:52:13;2.58;;;1.08;;
40871;SDS011;26591;43.264;26.940;2022-08-11T11:54:44;6.85;;;1.30;;
40871;SDS011;26591;43.264;26.940;2022-08-11T11:57:14;1.55;;;1.23;;
40871;SDS011;26591;43.264;26.940;2022-08-11T12:00:00;4.68;;;1.20;;
40871;SDS011;26591;43.264;26.940;2022-08-11T12:02:46;3.55;;;1.30;;
40871;SDS011;26591;43.264;26.940;2022-08-11T12:05:12;3.40;;;1.10;;
40871;SDS011;26591;43.264;26.940;2022-08-11T12:07:39;5.05;;;1.25;;
40871;SDS011;26591;43.264;26.940;2022-08-11T12:10:24;6.53;;;1.40;;
40871;SDS011;26591;43.264;26.940;2022-08-11T12:12:50;3.42;;;1.10;;
40871;SDS011;26591;43.264;26.940;2022-08-11T12:15:34;3.92;;;1.58;;
40871;SDS011;26591;43.264;26.940;2022-08-11T12:18:01;5.05;;;1.27;;
40871;SDS011;26591;43.264;26.940;2022-08-11T12:20:28;5.47;;;1.33;;
40871;SDS011;26591;43.264;26.940;2022-08-11T12:22:54;2.90;;;1.15;;
40871;SDS011;26591;43.264;26.940;2022-08-11T12:25:41;4.18;;;1.15;;
40871;SDS011;26591;43.264;26.940;2022-08-11T12:28:27;5.80;;;1.52;;
40871;SDS011;26591;43.264;26.940;2022-08-11T12:30:54;3.67;;;1.63;;
40871;SDS011;26591;43.264;26.940;2022-08-11T12:33:20;4.05;;;1.25;;
40871;SDS011;26591;43.264;26.940;2022-08-11T12:35:48;4.15;;;1.40;;
40871;SDS011;26591;43.264;26.940;2022-08-11T12:38:20;5.63;;;1.50;;
40871;SDS011;26591;43.264;26.940;2022-08-11T12:40:47;8.48;;;1.52;;
40871;SDS011;26591;43.264;26.940;2022-08-11T12:43:33;5.75;;;1.50;;
40871;SDS011;26591;43.264;26.940;2022-08-11T12:46:18;3.13;;;1.55;;
40871;SDS011;26591;43.264;26.940;2022-08-11T12:48:48;4.88;;;1.58;;
40871;SDS011;26591;43.264;26.940;2022-08-11T12:51:40;7.45;;;2.55;;
40871;SDS011;26591;43.264;26.940;2022-08-11T12:57:05;3.63;;;1.40;;
40871;SDS011;26591;43.264;26.940;2022-08-11T13:02:37;4.70;;;1.80;;
40871;SDS011;26591;43.264;26.940;2022-08-11T13:05:23;6.00;;;1.77;;
40871;SDS011;26591;43.264;26.940;2022-08-11T13:07:50;5.38;;;1.52;;
40871;SDS011;26591;43.264;26.940;2022-08-11T13:10:17;4.82;;;3.10;;
40871;SDS011;26591;43.264;26.940;2022-08-11T13:13:03;5.53;;;1.75;;
40871;SDS011;26591;43.264;26.940;2022-08-11T13:15:31;4.05;;;1.60;;
40871;SDS011;26591;43.264;26.940;2022-08-11T13:17:57;6.10;;;2.00;;
40871;SDS011;26591;43.264;26.940;2022-08-11T13:20:24;5.30;;;1.92;;
40871;SDS011;26591;43.264;26.940;2022-08-11T13:22:51;4.03;;;1.40;;
40871;SDS011;26591;43.264;26.940;2022-08-11T13:25:20;3.70;;;1.83;;
40871;SDS011;26591;43.264;26.940;2022-08-11T13:27:48;3.70;;;1.60;;
40871;SDS011;26591;43.264;26.940;2022-08-11T13:30:15;6.43;;;1.50;;
40871;SDS011;26591;43.264;26.940;2022-08-11T13:33:00;8.57;;;1.88;;
40871;SDS011;26591;43.264;26.940;2022-08-11T13:35:29;6.50;;;1.75;;
40871;SDS011;26591;43.264;26.940;2022-08-11T13:37:57;4.75;;;1.70;;
40871;SDS011;26591;43.264;26.940;2022-08-11T13:40:26;6.53;;;1.60;;
40871;SDS011;26591;43.264;26.940;2022-08-11T13:42:53;5.18;;;3.10;;
40871;SDS011;26591;43.264;26.940;2022-08-11T13:45:23;6.68;;;1.90;;
40871;SDS011;26591;43.264;26.940;2022-08-11T13:47:56;3.38;;;1.55;;
40871;SDS011;26591;43.264;26.940;2022-08-11T13:50:23;9.35;;;1.60;;
40871;SDS011;26591;43.264;26.940;2022-08-11T13:53:14;3.50;;;1.60;;
40871;SDS011;26591;43.264;26.940;2022-08-11T13:55:41;7.68;;;1.98;;
40871;SDS011;26591;43.264;26.940;2022-08-11T13:58:09;4.55;;;1.80;;
40871;SDS011;26591;43.264;26.940;2022-08-11T14:00:36;3.30;;;2.03;;
40871;SDS011;26591;43.264;26.940;2022-08-11T14:03:02;3.30;;;1.73;;
40871;SDS011;26591;43.264;26.940;2022-08-11T14:08:03;4.32;;;1.63;;
40871;SDS011;26591;43.264;26.940;2022-08-11T14:10:37;2.38;;;1.58;;
40871;SDS011;26591;43.264;26.940;2022-08-11T14:13:11;3.15;;;1.77;;
40871;SDS011;26591;43.264;26.940;2022-08-11T14:16:00;3.67;;;1.65;;
40871;SDS011;26591;43.264;26.940;2022-08-11T14:18:31;10.02;;;1.95;;
40871;SDS011;26591;43.264;26.940;2022-08-11T14:20:58;8.70;;;1.55;;
40871;SDS011;26591;43.264;26.940;2022-08-11T14:23:49;11.30;;;1.90;;
40871;SDS011;26591;43.264;26.940;2022-08-11T14:26:19;6.25;;;1.70;;
40871;SDS011;26591;43.264;26.940;2022-08-11T14:31:27;8.60;;;1.80;;
40871;SDS011;26591;43.264;26.940;2022-08-11T14:33:55;5.75;;;1.50;;
40871;SDS011;26591;43.264;26.940;2022-08-11T14:36:22;10.98;;;2.60;;
40871;SDS011;26591;43.264;26.940;2022-08-11T14:38:50;4.85;;;1.80;;
40871;SDS011;26591;43.264;26.940;2022-08-11T14:41:18;8.88;;;1.70;;
40871;SDS011;26591;43.264;26.940;2022-08-11T14:44:03;5.15;;;1.85;;
40871;SDS011;26591;43.264;26.940;2022-08-11T14:46:48;5.95;;;1.80;;
40871;SDS011;26591;43.264;26.940;2022-08-11T14:49:34;5.40;;;1.70;;
40871;SDS011;26591;43.264;26.940;2022-08-11T14:52:03;4.25;;;1.60;;
40871;SDS011;26591;43.264;26.940;2022-08-11T14:54:32;7.25;;;1.88;;
40871;SDS011;26591;43.264;26.940;2022-08-11T14:57:18;3.00;;;1.60;;
40871;SDS011;26591;43.264;26.940;2022-08-11T14:59:46;12.20;;;1.60;;
40871;SDS011;26591;43.264;26.940;2022-08-11T15:02:13;11.43;;;1.70;;
40871;SDS011;26591;43.264;26.940;2022-08-11T15:04:59;10.45;;;1.73;;
40871;SDS011;26591;43.264;26.940;2022-08-11T15:07:27;5.75;;;1.67;;
40871;SDS011;26591;43.264;26.940;2022-08-11T15:09:56;6.10;;;1.40;;
40871;SDS011;26591;43.264;26.940;2022-08-11T15:12:24;5.57;;;1.50;;
40871;SDS011;26591;43.264;26.940;2022-08-11T15:14:50;6.95;;;1.70;;
40871;SDS011;26591;43.264;26.940;2022-08-11T15:17:34;3.40;;;1.88;;
40871;SDS011;26591;43.264;26.940;2022-08-11T15:20:03;7.38;;;2.13;;
40871;SDS011;26591;43.264;26.940;2022-08-11T15:22:51;4.30;;;1.50;;
40871;SDS011;26591;43.264;26.940;2022-08-11T15:25:35;6.60;;;1.70;;
40871;SDS011;26591;43.264;26.940;2022-08-11T15:28:04;14.38;;;2.50;;
40871;SDS011;26591;43.264;26.940;2022-08-11T15:30:51;4.28;;;1.90;;
40871;SDS011;26591;43.264;26.940;2022-08-11T15:33:39;6.82;;;1.70;;
40871;SDS011;26591;43.264;26.940;2022-08-11T15:36:26;1.80;;;1.50;;
40871;SDS011;26591;43.264;26.940;2022-08-11T15:39:20;3.17;;;1.63;;
40871;SDS011;26591;43.264;26.940;2022-08-11T15:41:57;4.97;;;2.38;;
40871;SDS011;26591;43.264;26.940;2022-08-11T15:44:46;7.47;;;2.00;;
40871;SDS011;26591;43.264;26.940;2022-08-11T15:47:36;3.13;;;1.75;;
40871;SDS011;26591;43.264;26.940;2022-08-11T15:50:12;7.10;;;1.80;;
40871;SDS011;26591;43.264;26.940;2022-08-11T15:52:52;3.33;;;1.60;;
40871;SDS011;26591;43.264;26.940;2022-08-11T15:55:22;3.65;;;1.58;;
40871;SDS011;26591;43.264;26.940;2022-08-11T15:57:50;4.55;;;2.00;;
40871;SDS011;26591;43.264;26.940;2022-08-11T16:00:37;6.15;;;1.70;;
40871;SDS011;26591;43.264;26.940;2022-08-11T16:03:24;9.77;;;2.20;;
40871;SDS011;26591;43.264;26.940;2022-08-11T16:06:10;5.30;;;1.63;;
40871;SDS011;26591;43.264;26.940;2022-08-11T16:08:39;4.63;;;1.58;;
40871;SDS011;26591;43.264;26.940;2022-08-11T16:11:07;5.30;;;1.97;;
40871;SDS011;26591;43.264;26.940;2022-08-11T16:13:33;5.63;;;1.52;;
40871;SDS011;26591;43.264;26.940;2022-08-11T16:16:06;8.20;;;1.67;;
40871;SDS011;26591;43.264;26.940;2022-08-11T16:18:47;9.02;;;1.80;;
40871;SDS011;26591;43.264;26.940;2022-08-11T16:21:19;4.22;;;1.70;;
40871;SDS011;26591;43.264;26.940;2022-08-11T16:23:48;6.07;;;1.60;;
40871;SDS011;26591;43.264;26.940;2022-08-11T16:26:16;3.65;;;1.60;;
40871;SDS011;26591;43.264;26.940;2022-08-11T16:28:49;3.42;;;1.80;;
40871;SDS011;26591;43.264;26.940;2022-08-11T16:31:22;6.15;;;1.98;;
40871;SDS011;26591;43.264;26.940;2022-08-11T16:33:50;5.28;;;1.80;;
40871;SDS011;26591;43.264;26.940;2022-08-11T16:36:18;6.93;;;1.95;;
40871;SDS011;26591;43.264;26.940;2022-08-11T16:39:04;5.32;;;1.95;;
40871;SDS011;26591;43.264;26.940;2022-08-11T16:41:32;9.48;;;2.00;;
40871;SDS011;26591;43.264;26.940;2022-08-11T16:44:18;4.78;;;1.67;;
40871;SDS011;26591;43.264;26.940;2022-08-11T16:47:03;3.20;;;1.58;;
40871;SDS011;26591;43.264;26.940;2022-08-11T16:49:34;4.22;;;1.88;;
40871;SDS011;26591;43.264;26.940;2022-08-11T16:52:03;5.07;;;1.85;;
40871;SDS011;26591;43.264;26.940;2022-08-11T16:54:35;5.30;;;1.50;;
40871;SDS011;26591;43.264;26.940;2022-08-11T16:57:04;10.52;;;2.03;;
40871;SDS011;26591;43.264;26.940;2022-08-11T16:59:52;4.38;;;1.80;;
40871;SDS011;26591;43.264;26.940;2022-08-11T17:02:20;7.93;;;2.10;;
40871;SDS011;26591;43.264;26.940;2022-08-11T17:05:09;4.35;;;1.90;;
40871;SDS011;26591;43.264;26.940;2022-08-11T17:07:55;5.10;;;2.22;;
40871;SDS011;26591;43.264;26.940;2022-08-11T17:11:01;5.93;;;1.88;;
40871;SDS011;26591;43.264;26.940;2022-08-11T17:13:47;5.75;;;2.20;;
40871;SDS011;26591;43.264;26.940;2022-08-11T17:16:20;10.25;;;2.10;;
40871;SDS011;26591;43.264;26.940;2022-08-11T17:18:56;3.45;;;1.45;;
40871;SDS011;26591;43.264;26.940;2022-08-11T17:21:30;5.60;;;1.70;;
40871;SDS011;26591;43.264;26.940;2022-08-11T17:24:21;4.57;;;1.70;;
40871;SDS011;26591;43.264;26.940;2022-08-11T17:32:02;6.00;;;2.10;;
40871;SDS011;26591;43.264;26.940;2022-08-11T17:34:50;6.05;;;2.10;;
40871;SDS011;26591;43.264;26.940;2022-08-11T17:37:38;3.83;;;1.88;;
40871;SDS011;26591;43.264;26.940;2022-08-11T17:40:09;5.10;;;2.15;;
40871;SDS011;26591;43.264;26.940;2022-08-11T17:42:37;4.97;;;1.80;;
40871;SDS011;26591;43.264;26.940;2022-08-11T17:45:24;5.80;;;2.00;;
40871;SDS011;26591;43.264;26.940;2022-08-11T17:48:10;11.10;;;1.90;;
40871;SDS011;26591;43.264;26.940;2022-08-11T17:51:12;5.95;;;2.13;;
40871;SDS011;26591;43.264;26.940;2022-08-11T17:53:58;7.22;;;2.40;;
40871;SDS011;26591;43.264;26.940;2022-08-11T17:56:43;5.43;;;2.58;;
40871;SDS011;26591;43.264;26.940;2022-08-11T17:59:29;9.30;;;2.40;;
40871;SDS011;26591;43.264;26.940;2022-08-11T18:02:14;5.95;;;2.05;;
40871;SDS011;26591;43.264;26.940;2022-08-11T18:05:02;5.97;;;2.30;;
40871;SDS011;26591;43.264;26.940;2022-08-11T18:07:31;9.60;;;2.35;;
40871;SDS011;26591;43.264;26.940;2022-08-11T18:10:18;8.32;;;2.60;;
40871;SDS011;26591;43.264;26.940;2022-08-11T18:13:03;8.82;;;2.47;;
40871;SDS011;26591;43.264;26.940;2022-08-11T18:15:49;9.88;;;2.55;;
40871;SDS011;26591;43.264;26.940;2022-08-11T18:18:33;7.43;;;2.70;;
40871;SDS011;26591;43.264;26.940;2022-08-11T18:21:17;10.95;;;3.03;;
40871;SDS011;26591;43.264;26.940;2022-08-11T18:24:07;4.28;;;2.80;;
40871;SDS011;26591;43.264;26.940;2022-08-11T18:26:54;12.43;;;3.53;;
40871;SDS011;26591;43.264;26.940;2022-08-11T18:29:41;11.68;;;3.08;;
40871;SDS011;26591;43.264;26.940;2022-08-11T18:32:27;12.15;;;3.47;;
40871;SDS011;26591;43.264;26.940;2022-08-11T18:35:14;12.90;;;4.70;;
40871;SDS011;26591;43.264;26.940;2022-08-11T18:37:59;7.35;;;2.72;;
40871;SDS011;26591;43.264;26.940;2022-08-11T18:40:46;12.98;;;4.63;;
40871;SDS011;26591;43.264;26.940;2022-08-11T18:43:33;15.32;;;4.88;;
40871;SDS011;26591;43.264;26.940;2022-08-11T18:46:20;7.22;;;3.88;;
40871;SDS011;26591;43.264;26.940;2022-08-11T18:49:08;7.57;;;3.88;;
40871;SDS011;26591;43.264;26.940;2022-08-11T18:51:59;8.65;;;3.67;;
40871;SDS011;26591;43.264;26.940;2022-08-11T18:54:46;14.45;;;3.58;;
40871;SDS011;26591;43.264;26.940;2022-08-11T18:57:32;7.38;;;2.88;;
40871;SDS011;26591;43.264;26.940;2022-08-11T19:00:23;9.88;;;2.88;;
40871;SDS011;26591;43.264;26.940;2022-08-11T19:03:10;5.88;;;2.47;;
40871;SDS011;26591;43.264;26.940;2022-08-11T19:05:58;8.63;;;2.50;;
40871;SDS011;26591;43.264;26.940;2022-08-11T19:08:46;7.60;;;2.75;;
40871;SDS011;26591;43.264;26.940;2022-08-11T19:11:35;4.43;;;2.13;;
40871;SDS011;26591;43.264;26.940;2022-08-11T19:14:21;9.48;;;2.50;;
40871;SDS011;26591;43.264;26.940;2022-08-11T19:17:07;4.53;;;2.00;;
40871;SDS011;26591;43.264;26.940;2022-08-11T19:19:54;10.02;;;3.30;;
40871;SDS011;26591;43.264;26.940;2022-08-11T19:22:40;6.10;;;2.15;;
40871;SDS011;26591;43.264;26.940;2022-08-11T19:25:26;4.75;;;1.90;;
40871;SDS011;26591;43.264;26.940;2022-08-11T19:28:13;4.22;;;2.38;;
40871;SDS011;26591;43.264;26.940;2022-08-11T19:30:59;4.75;;;2.53;;
40871;SDS011;26591;43.264;26.940;2022-08-11T19:33:43;6.65;;;2.20;;